sensor_id;sensor_type;location;lat;lon;timestamp;temperature;humidity
28087;DHT22;15392;48.912;8.380;2023-08-08T00:02:15;21.70;47.20
28087;DHT22;15392;48.912;8.380;2023-08-08T00:04:41;21.70;47.30
28087;DHT22;15392;48.912;8.380;2023-08-08T00:07:07;21.70;47.10
28087;DHT22;15392;48.912;8.380;2023-08-08T00:09:32;21.70;47.20
28087;DHT22;15392;48.912;8.380;2023-08-08T00:11:58;21.70;47.40
28087;DHT22;15392;48.912;8.380;2023-08-08T00:14:24;21.70;47.20
28087;DHT22;15392;48.912;8.380;2023-08-08T00:16:50;21.70;47.20
28087;DHT22;15392;48.912;8.380;2023-08-08T00:19:16;21.70;47.10
28087;DHT22;15392;48.912;8.380;2023-08-08T00:21:41;21.70;47.20
28087;DHT22;15392;48.912;8.380;2023-08-08T00:24:07;21.70;47.20
28087;DHT22;15392;48.912;8.380;2023-08-08T00:26:33;21.60;47.30
28087;DHT22;15392;48.912;8.380;2023-08-08T00:28:59;21.60;47.40
28087;DHT22;15392;48.912;8.380;2023-08-08T00:31:25;21.60;47.50
28087;DHT22;15392;48.912;8.380;2023-08-08T00:33:50;21.60;47.60
28087;DHT22;15392;48.912;8.380;2023-08-08T00:36:16;21.60;47.60
28087;DHT22;15392;48.912;8.380;2023-08-08T00:38:42;21.60;47.70
28087;DHT22;15392;48.912;8.380;2023-08-08T00:41:07;21.60;47.60
28087;DHT22;15392;48.912;8.380;2023-08-08T00:43:33;21.60;47.50
28087;DHT22;15392;48.912;8.380;2023-08-08T00:45:59;21.60;47.50
28087;DHT22;15392;48.912;8.380;2023-08-08T00:48:25;21.60;47.50
28087;DHT22;15392;48.912;8.380;2023-08-08T00:50:52;21.50;47.40
28087;DHT22;15392;48.912;8.380;2023-08-08T00:53:18;21.50;47.70
28087;DHT22;15392;48.912;8.380;2023-08-08T00:55:53;21.50;47.70
28087;DHT22;15392;48.912;8.380;2023-08-08T00:58:19;21.50;47.90
28087;DHT22;15392;48.912;8.380;2023-08-08T01:00:45;21.50;48.00
28087;DHT22;15392;48.912;8.380;2023-08-08T01:03:11;21.50;48.10
28087;DHT22;15392;48.912;8.380;2023-08-08T01:05:46;21.50;48.00
28087;DHT22;15392;48.912;8.380;2023-08-08T01:08:16;21.50;47.90
28087;DHT22;15392;48.912;8.380;2023-08-08T01:10:46;21.40;47.70
28087;DHT22;15392;48.912;8.380;2023-08-08T01:13:16;21.40;47.70
28087;DHT22;15392;48.912;8.380;2023-08-08T01:15:45;21.40;47.90
28087;DHT22;15392;48.912;8.380;2023-08-08T01:18:12;21.40;47.80
28087;DHT22;15392;48.912;8.380;2023-08-08T01:20:40;21.30;47.90
28087;DHT22;15392;48.912;8.380;2023-08-08T01:23:19;21.30;48.00
28087;DHT22;15392;48.912;8.380;2023-08-08T01:25:50;21.30;48.20
28087;DHT22;15392;48.912;8.380;2023-08-08T01:28:20;21.20;48.10
28087;DHT22;15392;48.912;8.380;2023-08-08T01:30:47;21.20;48.10
28087;DHT22;15392;48.912;8.380;2023-08-08T01:33:13;21.20;48.10
28087;DHT22;15392;48.912;8.380;2023-08-08T01:35:43;21.20;48.10
28087;DHT22;15392;48.912;8.380;2023-08-08T01:38:22;21.20;48.40
28087;DHT22;15392;48.912;8.380;2023-08-08T01:40:55;21.20;48.70
28087;DHT22;15392;48.912;8.380;2023-08-08T01:43:22;21.10;48.40
28087;DHT22;15392;48.912;8.380;2023-08-08T01:45:50;21.10;48.30
28087;DHT22;15392;48.912;8.380;2023-08-08T01:48:16;21.10;48.30
28087;DHT22;15392;48.912;8.380;2023-08-08T01:50:41;21.10;48.40
28087;DHT22;15392;48.912;8.380;2023-08-08T01:53:07;21.10;48.50
28087;DHT22;15392;48.912;8.380;2023-08-08T01:55:33;21.10;48.50
28087;DHT22;15392;48.912;8.380;2023-08-08T01:57:59;21.10;48.60
28087;DHT22;15392;48.912;8.380;2023-08-08T02:00:24;21.00;48.50
28087;DHT22;15392;48.912;8.380;2023-08-08T02:02:50;21.00;48.50
28087;DHT22;15392;48.912;8.380;2023-08-08T02:05:16;20.90;48.50
28087;DHT22;15392;48.912;8.380;2023-08-08T02:07:42;20.90;48.50
28087;DHT22;15392;48.912;8.380;2023-08-08T02:10:07;20.90;48.60
28087;DHT22;15392;48.912;8.380;2023-08-08T02:12:33;20.80;48.60
28087;DHT22;15392;48.912;8.380;2023-08-08T02:14:59;20.80;48.60
28087;DHT22;15392;48.912;8.380;2023-08-08T02:17:25;20.70;48.60
28087;DHT22;15392;48.912;8.380;2023-08-08T02:19:52;20.60;48.60
28087;DHT22;15392;48.912;8.380;2023-08-08T02:22:18;20.70;48.70
28087;DHT22;15392;48.912;8.380;2023-08-08T02:24:44;20.60;48.70
28087;DHT22;15392;48.912;8.380;2023-08-08T02:27:11;20.60;48.90
28087;DHT22;15392;48.912;8.380;2023-08-08T02:29:37;20.50;48.80
28087;DHT22;15392;48.912;8.380;2023-08-08T02:32:03;20.50;48.80
28087;DHT22;15392;48.912;8.380;2023-08-08T02:34:29;20.50;49.00
28087;DHT22;15392;48.912;8.380;2023-08-08T02:36:54;20.50;49.00
28087;DHT22;15392;48.912;8.380;2023-08-08T02:39:20;20.40;49.00
28087;DHT22;15392;48.912;8.380;2023-08-08T02:41:46;20.40;49.10
28087;DHT22;15392;48.912;8.380;2023-08-08T02:44:11;20.40;49.10
28087;DHT22;15392;48.912;8.380;2023-08-08T02:46:37;20.40;49.20
28087;DHT22;15392;48.912;8.380;2023-08-08T02:49:06;20.40;49.20
28087;DHT22;15392;48.912;8.380;2023-08-08T02:51:32;20.30;49.20
28087;DHT22;15392;48.912;8.380;2023-08-08T02:53:57;20.30;49.20
28087;DHT22;15392;48.912;8.380;2023-08-08T02:56:23;20.30;49.30
28087;DHT22;15392;48.912;8.380;2023-08-08T02:58:49;20.30;49.30
28087;DHT22;15392;48.912;8.380;2023-08-08T03:01:14;20.30;49.30
28087;DHT22;15392;48.912;8.380;2023-08-08T03:03:41;20.30;49.30
28087;DHT22;15392;48.912;8.380;2023-08-08T03:06:08;20.30;49.30
28087;DHT22;15392;48.912;8.380;2023-08-08T03:08:34;20.40;49.30
28087;DHT22;15392;48.912;8.380;2023-08-08T03:10:59;20.30;49.20
28087;DHT22;15392;48.912;8.380;2023-08-08T03:13:26;20.40;49.20
28087;DHT22;15392;48.912;8.380;2023-08-08T03:15:51;20.30;49.30
28087;DHT22;15392;48.912;8.380;2023-08-08T03:18:17;20.30;49.30
28087;DHT22;15392;48.912;8.380;2023-08-08T03:20:43;20.30;49.30
28087;DHT22;15392;48.912;8.380;2023-08-08T03:23:09;20.30;49.30
28087;DHT22;15392;48.912;8.380;2023-08-08T03:25:34;20.30;49.90
28087;DHT22;15392;48.912;8.380;2023-08-08T03:28:00;20.30;49.30
28087;DHT22;15392;48.912;8.380;2023-08-08T03:30:26;20.30;49.30
28087;DHT22;15392;48.912;8.380;2023-08-08T03:32:51;20.30;49.30
28087;DHT22;15392;48.912;8.380;2023-08-08T03:35:17;20.30;49.90
28087;DHT22;15392;48.912;8.380;2023-08-08T03:37:43;20.30;49.40
28087;DHT22;15392;48.912;8.380;2023-08-08T03:40:09;20.30;49.40
28087;DHT22;15392;48.912;8.380;2023-08-08T03:42:35;20.30;49.50
28087;DHT22;15392;48.912;8.380;2023-08-08T03:45:02;20.30;49.50
28087;DHT22;15392;48.912;8.380;2023-08-08T03:47:28;20.30;49.50
28087;DHT22;15392;48.912;8.380;2023-08-08T03:49:55;20.20;49.40
28087;DHT22;15392;48.912;8.380;2023-08-08T03:52:23;20.20;49.50
28087;DHT22;15392;48.912;8.380;2023-08-08T03:54:49;20.20;49.60
28087;DHT22;15392;48.912;8.380;2023-08-08T03:57:15;20.20;49.60
28087;DHT22;15392;48.912;8.380;2023-08-08T03:59:40;20.20;49.60
28087;DHT22;15392;48.912;8.380;2023-08-08T04:02:06;20.20;49.60
28087;DHT22;15392;48.912;8.380;2023-08-08T04:04:32;20.20;49.50
28087;DHT22;15392;48.912;8.380;2023-08-08T04:06:57;20.20;49.50
28087;DHT22;15392;48.912;8.380;2023-08-08T04:09:23;20.20;49.50
28087;DHT22;15392;48.912;8.380;2023-08-08T04:11:49;20.10;49.40
28087;DHT22;15392;48.912;8.380;2023-08-08T04:14:14;20.10;49.40
28087;DHT22;15392;48.912;8.380;2023-08-08T04:16:40;20.10;49.40
28087;DHT22;15392;48.912;8.380;2023-08-08T04:19:06;20.10;49.40
28087;DHT22;15392;48.912;8.380;2023-08-08T04:21:31;20.10;49.40
28087;DHT22;15392;48.912;8.380;2023-08-08T04:23:58;20.00;49.30
28087;DHT22;15392;48.912;8.380;2023-08-08T04:26:25;20.00;49.50
28087;DHT22;15392;48.912;8.380;2023-08-08T04:28:51;20.00;49.70
28087;DHT22;15392;48.912;8.380;2023-08-08T04:31:17;20.00;49.70
28087;DHT22;15392;48.912;8.380;2023-08-08T04:33:43;20.00;49.70
28087;DHT22;15392;48.912;8.380;2023-08-08T04:36:08;20.00;49.70
28087;DHT22;15392;48.912;8.380;2023-08-08T04:38:34;20.00;49.70
28087;DHT22;15392;48.912;8.380;2023-08-08T04:41:00;20.00;49.70
28087;DHT22;15392;48.912;8.380;2023-08-08T04:43:25;20.00;49.80
28087;DHT22;15392;48.912;8.380;2023-08-08T04:45:53;20.00;49.80
28087;DHT22;15392;48.912;8.380;2023-08-08T04:48:19;20.00;49.70
28087;DHT22;15392;48.912;8.380;2023-08-08T04:50:46;20.10;49.80
28087;DHT22;15392;48.912;8.380;2023-08-08T04:53:12;20.10;49.80
28087;DHT22;15392;48.912;8.380;2023-08-08T04:55:38;20.10;49.80
28087;DHT22;15392;48.912;8.380;2023-08-08T04:58:04;20.00;49.70
28087;DHT22;15392;48.912;8.380;2023-08-08T05:00:30;20.10;49.70
28087;DHT22;15392;48.912;8.380;2023-08-08T05:02:56;20.10;49.70
28087;DHT22;15392;48.912;8.380;2023-08-08T05:05:22;20.00;49.80
28087;DHT22;15392;48.912;8.380;2023-08-08T05:07:47;20.00;49.80
28087;DHT22;15392;48.912;8.380;2023-08-08T05:10:13;20.00;49.70
28087;DHT22;15392;48.912;8.380;2023-08-08T05:12:39;20.00;49.80
28087;DHT22;15392;48.912;8.380;2023-08-08T05:15:05;20.10;49.80
28087;DHT22;15392;48.912;8.380;2023-08-08T05:17:34;20.10;49.80
28087;DHT22;15392;48.912;8.380;2023-08-08T05:20:00;20.10;49.80
28087;DHT22;15392;48.912;8.380;2023-08-08T05:22:26;20.10;49.80
28087;DHT22;15392;48.912;8.380;2023-08-08T05:24:51;20.10;49.80
28087;DHT22;15392;48.912;8.380;2023-08-08T05:27:17;20.20;49.80
28087;DHT22;15392;48.912;8.380;2023-08-08T05:29:43;20.10;49.70
28087;DHT22;15392;48.912;8.380;2023-08-08T05:32:08;20.20;49.80
28087;DHT22;15392;48.912;8.380;2023-08-08T05:34:34;20.20;49.80
28087;DHT22;15392;48.912;8.380;2023-08-08T05:37:00;20.20;49.70
28087;DHT22;15392;48.912;8.380;2023-08-08T05:39:26;20.20;49.70
28087;DHT22;15392;48.912;8.380;2023-08-08T05:41:52;20.20;49.70
28087;DHT22;15392;48.912;8.380;2023-08-08T05:44:18;20.20;49.70
28087;DHT22;15392;48.912;8.380;2023-08-08T05:46:44;20.30;49.70
28087;DHT22;15392;48.912;8.380;2023-08-08T05:49:09;20.30;49.70
28087;DHT22;15392;48.912;8.380;2023-08-08T05:51:35;20.30;49.70
28087;DHT22;15392;48.912;8.380;2023-08-08T05:54:01;20.30;49.80
28087;DHT22;15392;48.912;8.380;2023-08-08T05:56:36;20.30;49.80
28087;DHT22;15392;48.912;8.380;2023-08-08T05:59:05;20.30;49.90
28087;DHT22;15392;48.912;8.380;2023-08-08T06:01:31;20.30;49.70
28087;DHT22;15392;48.912;8.380;2023-08-08T06:03:58;20.40;49.80
28087;DHT22;15392;48.912;8.380;2023-08-08T06:06:25;20.40;49.90
28087;DHT22;15392;48.912;8.380;2023-08-08T06:08:51;20.40;49.90
28087;DHT22;15392;48.912;8.380;2023-08-08T06:11:17;20.50;49.90
28087;DHT22;15392;48.912;8.380;2023-08-08T06:13:43;20.50;50.50
28087;DHT22;15392;48.912;8.380;2023-08-08T06:16:09;20.50;49.80
28087;DHT22;15392;48.912;8.380;2023-08-08T06:18:35;20.60;49.80
28087;DHT22;15392;48.912;8.380;2023-08-08T06:21:02;20.70;49.80
28087;DHT22;15392;48.912;8.380;2023-08-08T06:23:28;20.70;49.70
28087;DHT22;15392;48.912;8.380;2023-08-08T06:25:53;20.80;49.80
28087;DHT22;15392;48.912;8.380;2023-08-08T06:28:19;20.90;49.70
28087;DHT22;15392;48.912;8.380;2023-08-08T06:30:45;20.90;49.60
28087;DHT22;15392;48.912;8.380;2023-08-08T06:33:11;21.00;49.60
28087;DHT22;15392;48.912;8.380;2023-08-08T06:35:44;21.00;49.50
28087;DHT22;15392;48.912;8.380;2023-08-08T06:38:12;21.10;49.50
28087;DHT22;15392;48.912;8.380;2023-08-08T06:40:41;21.20;49.60
28087;DHT22;15392;48.912;8.380;2023-08-08T06:43:06;21.20;49.60
28087;DHT22;15392;48.912;8.380;2023-08-08T06:45:32;21.30;49.50
28087;DHT22;15392;48.912;8.380;2023-08-08T06:47:58;21.40;49.60
28087;DHT22;15392;48.912;8.380;2023-08-08T06:50:24;21.50;49.50
28087;DHT22;15392;48.912;8.380;2023-08-08T06:52:50;21.50;49.20
28087;DHT22;15392;48.912;8.380;2023-08-08T06:55:16;21.60;49.00
28087;DHT22;15392;48.912;8.380;2023-08-08T06:57:42;21.70;49.00
28087;DHT22;15392;48.912;8.380;2023-08-08T07:00:08;21.80;49.50
28087;DHT22;15392;48.912;8.380;2023-08-08T07:02:37;21.90;48.90
28087;DHT22;15392;48.912;8.380;2023-08-08T07:05:03;22.00;48.70
28087;DHT22;15392;48.912;8.380;2023-08-08T07:07:29;22.10;48.60
28087;DHT22;15392;48.912;8.380;2023-08-08T07:09:56;22.20;48.40
28087;DHT22;15392;48.912;8.380;2023-08-08T07:12:22;22.30;48.50
28087;DHT22;15392;48.912;8.380;2023-08-08T07:14:48;22.50;48.60
28087;DHT22;15392;48.912;8.380;2023-08-08T07:17:13;22.60;48.60
28087;DHT22;15392;48.912;8.380;2023-08-08T07:19:40;22.90;48.50
28087;DHT22;15392;48.912;8.380;2023-08-08T07:22:06;23.20;48.60
28087;DHT22;15392;48.912;8.380;2023-08-08T07:24:33;23.40;48.10
28087;DHT22;15392;48.912;8.380;2023-08-08T07:27:00;23.70;48.00
28087;DHT22;15392;48.912;8.380;2023-08-08T07:29:26;24.00;48.00
28087;DHT22;15392;48.912;8.380;2023-08-08T07:31:52;24.40;47.50
28087;DHT22;15392;48.912;8.380;2023-08-08T07:34:18;24.70;47.30
28087;DHT22;15392;48.912;8.380;2023-08-08T07:36:47;24.90;47.10
28087;DHT22;15392;48.912;8.380;2023-08-08T07:39:15;25.30;46.50
28087;DHT22;15392;48.912;8.380;2023-08-08T07:41:41;25.60;46.40
28087;DHT22;15392;48.912;8.380;2023-08-08T07:44:07;25.90;46.70
28087;DHT22;15392;48.912;8.380;2023-08-08T07:46:33;26.30;46.60
28087;DHT22;15392;48.912;8.380;2023-08-08T07:48:58;26.70;46.30
28087;DHT22;15392;48.912;8.380;2023-08-08T07:51:29;27.00;45.60
28087;DHT22;15392;48.912;8.380;2023-08-08T07:53:55;27.40;45.70
28087;DHT22;15392;48.912;8.380;2023-08-08T07:56:21;27.70;45.80
28087;DHT22;15392;48.912;8.380;2023-08-08T07:58:46;28.00;45.60
28087;DHT22;15392;48.912;8.380;2023-08-08T08:01:15;28.30;44.50
28087;DHT22;15392;48.912;8.380;2023-08-08T08:03:42;28.60;44.60
28087;DHT22;15392;48.912;8.380;2023-08-08T08:06:07;28.80;44.20
28087;DHT22;15392;48.912;8.380;2023-08-08T08:08:33;29.10;44.00
28087;DHT22;15392;48.912;8.380;2023-08-08T08:11:01;29.30;43.20
28087;DHT22;15392;48.912;8.380;2023-08-08T08:13:27;29.50;43.00
28087;DHT22;15392;48.912;8.380;2023-08-08T08:15:53;29.60;42.60
28087;DHT22;15392;48.912;8.380;2023-08-08T08:18:19;29.80;42.60
28087;DHT22;15392;48.912;8.380;2023-08-08T08:20:45;29.90;43.10
28087;DHT22;15392;48.912;8.380;2023-08-08T08:23:12;30.00;43.20
28087;DHT22;15392;48.912;8.380;2023-08-08T08:25:38;30.20;43.00
28087;DHT22;15392;48.912;8.380;2023-08-08T08:28:04;30.30;43.00
28087;DHT22;15392;48.912;8.380;2023-08-08T08:30:30;30.30;42.10
28087;DHT22;15392;48.912;8.380;2023-08-08T08:32:56;30.30;41.80
28087;DHT22;15392;48.912;8.380;2023-08-08T08:35:24;30.30;41.50
28087;DHT22;15392;48.912;8.380;2023-08-08T08:37:50;30.30;41.40
28087;DHT22;15392;48.912;8.380;2023-08-08T08:40:17;30.30;42.10
28087;DHT22;15392;48.912;8.380;2023-08-08T08:42:43;30.30;42.10
28087;DHT22;15392;48.912;8.380;2023-08-08T08:45:11;30.40;42.70
28087;DHT22;15392;48.912;8.380;2023-08-08T08:47:37;30.50;42.20
28087;DHT22;15392;48.912;8.380;2023-08-08T08:50:07;30.60;41.60
28087;DHT22;15392;48.912;8.380;2023-08-08T08:52:33;30.60;42.40
28087;DHT22;15392;48.912;8.380;2023-08-08T08:54:59;30.70;41.90
28087;DHT22;15392;48.912;8.380;2023-08-08T08:57:25;30.80;42.30
28087;DHT22;15392;48.912;8.380;2023-08-08T08:59:52;30.80;42.20
28087;DHT22;15392;48.912;8.380;2023-08-08T09:02:18;30.90;42.40
28087;DHT22;15392;48.912;8.380;2023-08-08T09:04:45;31.00;41.50
28087;DHT22;15392;48.912;8.380;2023-08-08T09:07:11;31.00;41.70
28087;DHT22;15392;48.912;8.380;2023-08-08T09:09:38;31.00;41.50
28087;DHT22;15392;48.912;8.380;2023-08-08T09:12:04;31.00;41.50
28087;DHT22;15392;48.912;8.380;2023-08-08T09:14:34;31.00;41.00
28087;DHT22;15392;48.912;8.380;2023-08-08T09:17:14;31.00;41.20
28087;DHT22;15392;48.912;8.380;2023-08-08T09:19:44;30.90;40.70
28087;DHT22;15392;48.912;8.380;2023-08-08T09:22:10;30.90;40.50
28087;DHT22;15392;48.912;8.380;2023-08-08T09:24:42;30.90;41.90
28087;DHT22;15392;48.912;8.380;2023-08-08T09:27:08;30.90;41.70
28087;DHT22;15392;48.912;8.380;2023-08-08T09:29:35;30.90;41.40
28087;DHT22;15392;48.912;8.380;2023-08-08T09:32:05;30.90;41.60
28087;DHT22;15392;48.912;8.380;2023-08-08T09:34:32;30.90;40.70
28087;DHT22;15392;48.912;8.380;2023-08-08T09:36:58;30.90;41.10
28087;DHT22;15392;48.912;8.380;2023-08-08T09:39:25;30.80;41.10
28087;DHT22;15392;48.912;8.380;2023-08-08T09:41:52;30.70;41.30
28087;DHT22;15392;48.912;8.380;2023-08-08T09:44:18;30.50;40.20
28087;DHT22;15392;48.912;8.380;2023-08-08T09:46:50;30.40;40.60
28087;DHT22;15392;48.912;8.380;2023-08-08T09:49:15;30.20;40.40
28087;DHT22;15392;48.912;8.380;2023-08-08T09:51:41;30.00;40.40
28087;DHT22;15392;48.912;8.380;2023-08-08T09:54:09;29.90;41.00
28087;DHT22;15392;48.912;8.380;2023-08-08T09:56:36;29.70;40.50
28087;DHT22;15392;48.912;8.380;2023-08-08T09:59:02;29.50;40.50
28087;DHT22;15392;48.912;8.380;2023-08-08T10:01:29;29.30;41.20
28087;DHT22;15392;48.912;8.380;2023-08-08T10:03:56;29.20;41.50
28087;DHT22;15392;48.912;8.380;2023-08-08T10:06:23;29.00;41.50
28087;DHT22;15392;48.912;8.380;2023-08-08T10:08:49;28.80;40.70
28087;DHT22;15392;48.912;8.380;2023-08-08T10:11:20;28.60;42.10
28087;DHT22;15392;48.912;8.380;2023-08-08T10:13:50;28.50;41.90
28087;DHT22;15392;48.912;8.380;2023-08-08T10:16:17;28.30;42.30
28087;DHT22;15392;48.912;8.380;2023-08-08T10:18:45;28.20;42.50
28087;DHT22;15392;48.912;8.380;2023-08-08T10:21:12;28.10;42.30
28087;DHT22;15392;48.912;8.380;2023-08-08T10:23:42;27.90;42.10
28087;DHT22;15392;48.912;8.380;2023-08-08T10:26:18;27.80;42.40
28087;DHT22;15392;48.912;8.380;2023-08-08T10:28:59;27.70;42.60
28087;DHT22;15392;48.912;8.380;2023-08-08T10:31:33;27.60;41.30
28087;DHT22;15392;48.912;8.380;2023-08-08T10:34:05;27.50;42.80
28087;DHT22;15392;48.912;8.380;2023-08-08T10:36:51;27.40;42.10
28087;DHT22;15392;48.912;8.380;2023-08-08T10:39:19;27.30;41.80
28087;DHT22;15392;48.912;8.380;2023-08-08T10:41:50;27.30;42.50
28087;DHT22;15392;48.912;8.380;2023-08-08T10:44:25;27.20;41.90
28087;DHT22;15392;48.912;8.380;2023-08-08T10:46:52;27.10;41.00
28087;DHT22;15392;48.912;8.380;2023-08-08T10:49:19;27.10;42.90
28087;DHT22;15392;48.912;8.380;2023-08-08T10:51:46;27.00;42.70
28087;DHT22;15392;48.912;8.380;2023-08-08T10:54:23;26.90;42.70
28087;DHT22;15392;48.912;8.380;2023-08-08T10:56:55;26.90;42.50
28087;DHT22;15392;48.912;8.380;2023-08-08T10:59:27;26.90;42.90
28087;DHT22;15392;48.912;8.380;2023-08-08T11:02:01;26.90;42.60
28087;DHT22;15392;48.912;8.380;2023-08-08T11:04:27;26.80;42.50
28087;DHT22;15392;48.912;8.380;2023-08-08T11:06:55;26.80;42.20
28087;DHT22;15392;48.912;8.380;2023-08-08T11:09:22;26.80;43.00
28087;DHT22;15392;48.912;8.380;2023-08-08T11:11:49;26.70;42.80
28087;DHT22;15392;48.912;8.380;2023-08-08T11:14:21;26.70;42.80
28087;DHT22;15392;48.912;8.380;2023-08-08T11:16:49;26.70;42.30
28087;DHT22;15392;48.912;8.380;2023-08-08T11:19:16;26.70;42.00
28087;DHT22;15392;48.912;8.380;2023-08-08T11:21:45;26.60;41.80
28087;DHT22;15392;48.912;8.380;2023-08-08T11:24:12;26.70;42.20
28087;DHT22;15392;48.912;8.380;2023-08-08T11:26:40;26.60;42.40
28087;DHT22;15392;48.912;8.380;2023-08-08T11:29:07;26.60;42.50
28087;DHT22;15392;48.912;8.380;2023-08-08T11:31:36;26.60;42.90
28087;DHT22;15392;48.912;8.380;2023-08-08T11:34:04;26.60;42.70
28087;DHT22;15392;48.912;8.380;2023-08-08T11:36:51;26.60;43.10
28087;DHT22;15392;48.912;8.380;2023-08-08T11:39:17;26.60;42.80
28087;DHT22;15392;48.912;8.380;2023-08-08T11:41:43;26.60;42.30
28087;DHT22;15392;48.912;8.380;2023-08-08T11:44:09;26.60;42.70
28087;DHT22;15392;48.912;8.380;2023-08-08T11:46:35;26.70;42.90
28087;DHT22;15392;48.912;8.380;2023-08-08T11:49:05;26.70;43.10
28087;DHT22;15392;48.912;8.380;2023-08-08T11:51:33;26.70;42.40
28087;DHT22;15392;48.912;8.380;2023-08-08T11:54:01;26.80;43.20
28087;DHT22;15392;48.912;8.380;2023-08-08T11:56:32;26.80;42.40
28087;DHT22;15392;48.912;8.380;2023-08-08T11:58:59;26.80;43.00
28087;DHT22;15392;48.912;8.380;2023-08-08T12:01:26;26.80;41.80
28087;DHT22;15392;48.912;8.380;2023-08-08T12:03:53;26.80;42.00
28087;DHT22;15392;48.912;8.380;2023-08-08T12:06:19;26.90;42.90
28087;DHT22;15392;48.912;8.380;2023-08-08T12:08:47;26.90;43.10
28087;DHT22;15392;48.912;8.380;2023-08-08T12:11:14;26.90;42.80
28087;DHT22;15392;48.912;8.380;2023-08-08T12:13:42;27.00;43.00
28087;DHT22;15392;48.912;8.380;2023-08-08T12:16:10;27.00;42.10
28087;DHT22;15392;48.912;8.380;2023-08-08T12:18:37;27.00;43.00
28087;DHT22;15392;48.912;8.380;2023-08-08T12:21:08;27.10;43.40
28087;DHT22;15392;48.912;8.380;2023-08-08T12:23:35;27.10;43.30
28087;DHT22;15392;48.912;8.380;2023-08-08T12:26:04;27.20;44.30
28087;DHT22;15392;48.912;8.380;2023-08-08T12:28:33;27.30;42.50
28087;DHT22;15392;48.912;8.380;2023-08-08T12:31:00;27.40;42.20
28087;DHT22;15392;48.912;8.380;2023-08-08T12:33:26;27.40;42.60
28087;DHT22;15392;48.912;8.380;2023-08-08T12:35:52;27.50;43.00
28087;DHT22;15392;48.912;8.380;2023-08-08T12:38:18;27.60;42.60
28087;DHT22;15392;48.912;8.380;2023-08-08T12:40:50;27.60;43.00
28087;DHT22;15392;48.912;8.380;2023-08-08T12:43:39;27.70;42.20
28087;DHT22;15392;48.912;8.380;2023-08-08T12:46:05;27.80;42.80
28087;DHT22;15392;48.912;8.380;2023-08-08T12:48:31;27.90;43.00
28087;DHT22;15392;48.912;8.380;2023-08-08T12:50:57;27.90;42.80
28087;DHT22;15392;48.912;8.380;2023-08-08T12:53:25;28.00;42.90
28087;DHT22;15392;48.912;8.380;2023-08-08T12:55:50;28.00;43.00
28087;DHT22;15392;48.912;8.380;2023-08-08T12:58:19;28.10;43.10
28087;DHT22;15392;48.912;8.380;2023-08-08T13:00:45;28.20;42.40
28087;DHT22;15392;48.912;8.380;2023-08-08T13:03:10;28.30;42.60
28087;DHT22;15392;48.912;8.380;2023-08-08T13:05:38;28.30;42.50
28087;DHT22;15392;48.912;8.380;2023-08-08T13:08:04;28.40;42.60
28087;DHT22;15392;48.912;8.380;2023-08-08T13:10:30;28.40;40.90
28087;DHT22;15392;48.912;8.380;2023-08-08T13:12:56;28.50;41.70
28087;DHT22;15392;48.912;8.380;2023-08-08T13:15:22;28.50;41.40
28087;DHT22;15392;48.912;8.380;2023-08-08T13:17:47;28.50;41.90
28087;DHT22;15392;48.912;8.380;2023-08-08T13:20:13;28.50;42.00
28087;DHT22;15392;48.912;8.380;2023-08-08T13:22:39;28.60;42.00
28087;DHT22;15392;48.912;8.380;2023-08-08T13:25:06;28.70;40.90
28087;DHT22;15392;48.912;8.380;2023-08-08T13:27:32;28.60;41.30
28087;DHT22;15392;48.912;8.380;2023-08-08T13:29:57;28.70;41.30
28087;DHT22;15392;48.912;8.380;2023-08-08T13:32:23;28.70;41.80
28087;DHT22;15392;48.912;8.380;2023-08-08T13:34:49;28.70;41.50
28087;DHT22;15392;48.912;8.380;2023-08-08T13:37:15;28.70;41.50
28087;DHT22;15392;48.912;8.380;2023-08-08T13:39:41;28.70;41.40
28087;DHT22;15392;48.912;8.380;2023-08-08T13:42:08;28.70;41.70
28087;DHT22;15392;48.912;8.380;2023-08-08T13:44:34;28.70;41.20
28087;DHT22;15392;48.912;8.380;2023-08-08T13:47:02;28.70;41.30
28087;DHT22;15392;48.912;8.380;2023-08-08T13:49:34;28.70;41.00
28087;DHT22;15392;48.912;8.380;2023-08-08T13:52:01;28.70;41.60
28087;DHT22;15392;48.912;8.380;2023-08-08T13:54:27;28.70;41.80
28087;DHT22;15392;48.912;8.380;2023-08-08T13:56:56;28.70;41.00
28087;DHT22;15392;48.912;8.380;2023-08-08T13:59:22;28.70;41.50
28087;DHT22;15392;48.912;8.380;2023-08-08T14:01:49;28.70;41.70
28087;DHT22;15392;48.912;8.380;2023-08-08T14:04:15;28.70;41.80
28087;DHT22;15392;48.912;8.380;2023-08-08T14:06:40;28.70;41.90
28087;DHT22;15392;48.912;8.380;2023-08-08T14:09:06;28.70;41.80
28087;DHT22;15392;48.912;8.380;2023-08-08T14:11:32;28.60;41.60
28087;DHT22;15392;48.912;8.380;2023-08-08T14:13:58;28.60;41.40
28087;DHT22;15392;48.912;8.380;2023-08-08T14:16:24;28.60;41.50
28087;DHT22;15392;48.912;8.380;2023-08-08T14:18:50;28.50;40.80
28087;DHT22;15392;48.912;8.380;2023-08-08T14:21:15;28.50;41.60
28087;DHT22;15392;48.912;8.380;2023-08-08T14:23:41;28.50;41.20
28087;DHT22;15392;48.912;8.380;2023-08-08T14:26:07;28.50;41.60
28087;DHT22;15392;48.912;8.380;2023-08-08T14:28:32;28.40;41.30
28087;DHT22;15392;48.912;8.380;2023-08-08T14:30:58;28.40;41.50
28087;DHT22;15392;48.912;8.380;2023-08-08T14:33:24;28.40;41.40
28087;DHT22;15392;48.912;8.380;2023-08-08T14:35:50;28.30;41.60
28087;DHT22;15392;48.912;8.380;2023-08-08T14:38:15;28.30;41.60
28087;DHT22;15392;48.912;8.380;2023-08-08T14:40:41;28.20;41.60
28087;DHT22;15392;48.912;8.380;2023-08-08T14:43:07;28.20;41.10
28087;DHT22;15392;48.912;8.380;2023-08-08T14:45:37;28.20;41.60
28087;DHT22;15392;48.912;8.380;2023-08-08T14:48:04;28.20;41.40
28087;DHT22;15392;48.912;8.380;2023-08-08T14:50:31;28.10;41.20
28087;DHT22;15392;48.912;8.380;2023-08-08T14:52:57;28.10;41.40
28087;DHT22;15392;48.912;8.380;2023-08-08T14:55:23;28.10;41.40
28087;DHT22;15392;48.912;8.380;2023-08-08T14:57:48;28.10;41.70
28087;DHT22;15392;48.912;8.380;2023-08-08T15:00:14;28.10;42.00
28087;DHT22;15392;48.912;8.380;2023-08-08T15:02:41;28.10;41.80
28087;DHT22;15392;48.912;8.380;2023-08-08T15:05:07;28.10;41.00
28087;DHT22;15392;48.912;8.380;2023-08-08T15:07:33;28.10;41.40
28087;DHT22;15392;48.912;8.380;2023-08-08T15:09:58;28.00;41.10
28087;DHT22;15392;48.912;8.380;2023-08-08T15:12:24;28.00;40.90
28087;DHT22;15392;48.912;8.380;2023-08-08T15:14:50;28.00;41.00
28087;DHT22;15392;48.912;8.380;2023-08-08T15:17:17;28.00;41.30
28087;DHT22;15392;48.912;8.380;2023-08-08T15:19:42;28.00;41.50
28087;DHT22;15392;48.912;8.380;2023-08-08T15:22:08;27.90;41.80
28087;DHT22;15392;48.912;8.380;2023-08-08T15:24:34;27.90;41.70
28087;DHT22;15392;48.912;8.380;2023-08-08T15:27:02;27.90;42.00
28087;DHT22;15392;48.912;8.380;2023-08-08T15:29:32;27.90;40.70